createdAt,value
2018-08-30T00:01:32.493Z,98.80
2018-08-30T00:04:01.340Z,98.80
2018-08-30T00:06:29.826Z,98.80
2018-08-30T00:08:58.284Z,98.80
2018-08-30T00:11:26.729Z,98.80
2018-08-30T00:13:55.200Z,98.80
2018-08-30T00:16:23.713Z,98.80
2018-08-30T00:18:53.008Z,98.80
2018-08-30T00:21:21.519Z,98.70
2018-08-30T00:23:49.995Z,98.70
2018-08-30T00:26:18.442Z,98.70
2018-08-30T00:28:46.892Z,98.60
2018-08-30T00:31:15.366Z,98.70
2018-08-30T00:33:43.792Z,99.00
2018-08-30T00:36:12.256Z,98.80
2018-08-30T00:38:40.743Z,99.10
2018-08-30T00:41:09.213Z,98.80
2018-08-30T00:43:37.706Z,98.80
2018-08-30T00:46:06.272Z,98.90
2018-08-30T00:48:34.783Z,98.90
2018-08-30T00:51:03.278Z,98.90
2018-08-30T00:53:31.742Z,98.90
2018-08-30T00:56:00.181Z,99.00
2018-08-30T00:58:28.592Z,99.00
2018-08-30T01:00:57.073Z,99.10
2018-08-30T01:03:25.517Z,99.10
2018-08-30T01:05:53.985Z,99.10
2018-08-30T01:08:22.436Z,99.10
2018-08-30T01:10:50.905Z,99.20
2018-08-30T01:13:19.337Z,99.20
2018-08-30T01:15:47.849Z,99.30
2018-08-30T01:18:16.334Z,99.30
2018-08-30T01:20:44.811Z,99.30
2018-08-30T01:23:13.315Z,99.30
2018-08-30T01:25:41.740Z,99.40
2018-08-30T01:28:10.204Z,99.40
2018-08-30T01:30:38.642Z,99.40
2018-08-30T01:33:07.108Z,99.50
2018-08-30T01:35:35.587Z,99.50
2018-08-30T01:38:04.046Z,99.50
2018-08-30T01:40:32.490Z,99.60
2018-08-30T01:43:02.335Z,99.70
2018-08-30T01:45:30.780Z,99.60
2018-08-30T01:47:59.216Z,99.50
2018-08-30T01:50:27.694Z,99.40
2018-08-30T01:52:56.120Z,99.30
2018-08-30T01:55:24.574Z,99.30
2018-08-30T01:57:53.025Z,99.30
2018-08-30T02:00:21.510Z,99.40
2018-08-30T02:02:49.952Z,99.40
2018-08-30T02:05:18.424Z,99.40
2018-08-30T02:07:46.831Z,99.50
2018-08-30T02:10:15.284Z,99.50
2018-08-30T02:12:43.758Z,99.50
2018-08-30T02:15:12.236Z,99.50
2018-08-30T02:17:40.944Z,99.60
2018-08-30T02:20:09.434Z,99.60
2018-08-30T02:22:37.864Z,99.50
2018-08-30T02:25:06.360Z,99.60
2018-08-30T02:27:34.850Z,99.70
2018-08-30T02:30:03.374Z,99.70
2018-08-30T02:32:31.905Z,99.80
2018-08-30T02:35:00.404Z,99.80
2018-08-30T02:37:28.890Z,99.80
2018-08-30T02:39:57.354Z,99.80
2018-08-30T02:42:25.815Z,99.80
2018-08-30T02:44:54.256Z,99.80
2018-08-30T02:47:22.861Z,99.80
2018-08-30T02:49:51.323Z,99.80
2018-08-30T02:52:19.768Z,99.90
2018-08-30T02:54:48.219Z,99.90
2018-08-30T02:57:16.655Z,99.90
2018-08-30T02:59:45.103Z,99.90
2018-08-30T03:02:13.588Z,99.90
2018-08-30T03:04:42.091Z,99.90
2018-08-30T03:07:10.757Z,99.90
2018-08-30T03:09:39.212Z,99.90
2018-08-30T03:12:07.681Z,99.90
2018-08-30T03:14:36.417Z,99.90
2018-08-30T03:17:04.937Z,99.90
2018-08-30T03:19:33.383Z,99.90
2018-08-30T03:22:01.869Z,99.90
2018-08-30T03:24:30.354Z,99.90
2018-08-30T03:26:58.796Z,99.90
2018-08-30T03:29:27.256Z,99.90
2018-08-30T03:31:55.707Z,99.90
2018-08-30T03:34:24.195Z,99.90
2018-08-30T03:36:52.662Z,99.90
2018-08-30T03:39:21.270Z,99.90
2018-08-30T03:41:49.816Z,99.90
2018-08-30T03:44:18.469Z,99.90
2018-08-30T03:46:47.984Z,99.90
2018-08-30T03:49:16.807Z,99.90
2018-08-30T03:51:45.281Z,99.90
2018-08-30T03:54:13.826Z,99.90
2018-08-30T03:56:42.290Z,99.90
2018-08-30T03:59:10.848Z,99.90
2018-08-30T04:01:39.278Z,99.90
2018-08-30T04:04:07.825Z,99.90
2018-08-30T04:06:36.284Z,99.90
2018-08-30T04:09:06.888Z,99.90
2018-08-30T04:11:35.338Z,99.90
2018-08-30T04:14:03.990Z,99.90
2018-08-30T04:16:32.450Z,99.90
2018-08-30T04:19:07.105Z,99.90
2018-08-30T04:21:36.304Z,99.90
2018-08-30T04:24:06.194Z,99.90
2018-08-30T04:26:34.671Z,99.90
2018-08-30T04:29:03.411Z,99.90
2018-08-30T04:31:31.931Z,99.90
2018-08-30T04:34:00.417Z,99.90
2018-08-30T04:36:28.891Z,99.90
2018-08-30T04:38:58.335Z,99.90
2018-08-30T04:41:27.303Z,99.90
2018-08-30T04:43:55.787Z,99.90
2018-08-30T04:46:24.369Z,99.90
2018-08-30T04:48:52.853Z,99.90
2018-08-30T04:51:21.281Z,99.90
2018-08-30T04:53:49.694Z,99.90
2018-08-30T04:56:18.124Z,99.90
2018-08-30T04:58:46.543Z,99.90
2018-08-30T05:01:15.025Z,99.90
2018-08-30T05:03:43.499Z,99.90
2018-08-30T05:06:11.951Z,99.90
2018-08-30T05:08:40.396Z,99.90
2018-08-30T05:11:09.166Z,99.90
2018-08-30T05:13:37.631Z,99.90
2018-08-30T05:16:06.182Z,99.90
2018-08-30T05:18:34.626Z,99.90
2018-08-30T05:21:03.080Z,99.90
2018-08-30T05:23:31.511Z,99.90
2018-08-30T05:25:59.966Z,99.90
2018-08-30T05:28:28.417Z,99.90
2018-08-30T05:30:56.867Z,99.90
2018-08-30T05:33:25.326Z,99.90
2018-08-30T05:35:53.822Z,99.90
2018-08-30T05:38:22.228Z,99.90
2018-08-30T05:40:50.683Z,99.90
2018-08-30T05:43:19.146Z,99.90
2018-08-30T05:45:47.663Z,99.90
2018-08-30T05:48:16.101Z,99.90
2018-08-30T05:50:44.552Z,99.90
2018-08-30T05:53:12.963Z,99.90
2018-08-30T05:55:41.398Z,99.90
2018-08-30T05:58:09.807Z,99.90
2018-08-30T06:00:38.290Z,99.90
2018-08-30T06:03:06.874Z,99.90
2018-08-30T06:05:35.306Z,99.90
2018-08-30T06:08:03.771Z,99.90
2018-08-30T06:10:32.235Z,99.90
2018-08-30T06:13:00.770Z,99.90
2018-08-30T06:15:29.210Z,99.90
2018-08-30T06:17:57.704Z,99.40
2018-08-30T06:20:26.183Z,99.20
2018-08-30T06:22:54.645Z,98.90
2018-08-30T06:25:23.113Z,98.40
2018-08-30T06:27:51.585Z,98.20
2018-08-30T06:30:20.050Z,97.80
2018-08-30T06:32:48.516Z,97.30
2018-08-30T06:35:16.977Z,96.90
2018-08-30T06:37:45.537Z,96.70
2018-08-30T06:40:14.042Z,96.70
2018-08-30T06:42:42.537Z,96.40
2018-08-30T06:45:11.011Z,96.60
2018-08-30T06:47:39.459Z,96.40
2018-08-30T06:50:07.924Z,95.90
2018-08-30T06:52:36.402Z,95.90
2018-08-30T06:55:04.921Z,94.60
2018-08-30T06:57:33.471Z,93.50
2018-08-30T07:00:01.967Z,92.10
2018-08-30T07:02:30.425Z,89.90
2018-08-30T07:04:58.889Z,84.80
2018-08-30T07:07:27.348Z,80.20
2018-08-30T07:09:55.841Z,74.50
2018-08-30T07:12:24.290Z,71.20
2018-08-30T07:14:52.845Z,72.10
2018-08-30T07:17:21.268Z,74.20
2018-08-30T07:19:49.688Z,73.90
2018-08-30T07:22:18.188Z,68.50
2018-08-30T07:24:46.617Z,64.80
2018-08-30T07:27:15.052Z,64.40
2018-08-30T07:29:43.545Z,63.30
2018-08-30T07:32:12.842Z,61.60
2018-08-30T07:34:41.369Z,61.10
2018-08-30T07:37:09.835Z,60.90
2018-08-30T07:39:38.348Z,59.90
2018-08-30T07:42:09.964Z,58.80
2018-08-30T07:44:38.494Z,57.70
2018-08-30T07:47:08.135Z,56.10
2018-08-30T07:49:36.466Z,54.60
2018-08-30T07:52:05.017Z,53.90
2018-08-30T07:54:33.477Z,53.50
2018-08-30T07:57:01.910Z,52.50
2018-08-30T07:59:30.360Z,51.80
2018-08-30T08:01:58.762Z,50.80
2018-08-30T08:04:27.222Z,50.50
2018-08-30T08:06:55.689Z,49.50
2018-08-30T08:09:24.159Z,46.30
2018-08-30T08:11:52.635Z,47.60
2018-08-30T08:14:21.029Z,46.10
2018-08-30T08:16:49.509Z,47.20
2018-08-30T08:19:17.931Z,46.10
2018-08-30T08:21:46.365Z,44.60
2018-08-30T08:24:15.001Z,45.00
2018-08-30T08:26:43.438Z,43.30
2018-08-30T08:29:11.859Z,42.90
2018-08-30T08:31:40.321Z,43.30
2018-08-30T08:34:08.781Z,41.40
2018-08-30T08:36:37.269Z,42.90
2018-08-30T08:39:06.468Z,40.90
2018-08-30T08:41:34.965Z,41.10
2018-08-30T08:44:03.435Z,40.30
2018-08-30T08:46:31.913Z,41.00
2018-08-30T08:49:00.452Z,39.10
2018-08-30T08:51:28.962Z,38.90
2018-08-30T08:53:57.428Z,38.80
2018-08-30T08:56:25.877Z,40.00
2018-08-30T08:58:54.463Z,40.50
2018-08-30T09:01:22.940Z,39.20
2018-08-30T09:03:54.281Z,38.40
2018-08-30T09:06:22.885Z,39.50
2018-08-30T09:08:51.339Z,41.10
2018-08-30T09:11:19.827Z,44.20
2018-08-30T09:13:48.264Z,47.80
2018-08-30T09:16:16.782Z,51.10
2018-08-30T09:18:45.362Z,54.80
2018-08-30T09:21:13.862Z,56.30
2018-08-30T09:23:42.344Z,58.20
2018-08-30T09:26:10.820Z,59.40
2018-08-30T09:28:39.317Z,59.00
2018-08-30T09:31:07.805Z,58.80
2018-08-30T09:33:36.206Z,59.40
2018-08-30T09:36:04.713Z,58.30
2018-08-30T09:38:33.220Z,52.40
2018-08-30T09:41:01.703Z,46.40
2018-08-30T09:43:30.175Z,40.20
2018-08-30T09:45:58.857Z,38.30
2018-08-30T09:48:27.287Z,35.70
2018-08-30T09:50:55.782Z,35.50
2018-08-30T09:53:24.273Z,38.30
2018-08-30T09:55:52.725Z,46.50
2018-08-30T09:58:21.209Z,49.50
2018-08-30T10:00:55.029Z,53.40
2018-08-30T10:03:23.505Z,54.30
2018-08-30T10:05:51.979Z,53.00
2018-08-30T10:08:20.455Z,53.10
2018-08-30T10:10:48.919Z,54.30
2018-08-30T10:13:17.382Z,47.40
2018-08-30T10:15:45.891Z,42.60
2018-08-30T10:18:14.333Z,38.30
2018-08-30T10:20:42.821Z,36.60
2018-08-30T10:23:11.274Z,34.10
2018-08-30T10:25:39.799Z,35.60
2018-08-30T10:28:08.286Z,35.20
2018-08-30T10:30:36.760Z,38.60
2018-08-30T10:33:05.574Z,40.70
2018-08-30T10:35:34.019Z,43.00
2018-08-30T10:38:02.450Z,46.10
2018-08-30T10:40:30.890Z,48.20
2018-08-30T10:42:59.401Z,46.80
2018-08-30T10:45:27.814Z,46.70
2018-08-30T10:47:56.258Z,47.00
2018-08-30T10:50:24.712Z,48.20
2018-08-30T10:52:53.524Z,51.10
2018-08-30T10:55:22.962Z,54.00
2018-08-30T10:57:51.418Z,53.60
2018-08-30T11:00:19.860Z,54.90
2018-08-30T11:02:48.366Z,54.60
2018-08-30T11:05:16.850Z,54.10
2018-08-30T11:07:45.344Z,52.80
2018-08-30T11:10:13.784Z,52.20
2018-08-30T11:12:42.285Z,53.50
2018-08-30T11:15:10.737Z,53.50
2018-08-30T11:17:39.154Z,53.70
2018-08-30T11:20:07.643Z,51.70
2018-08-30T11:22:36.084Z,48.10
2018-08-30T11:25:04.580Z,41.60
2018-08-30T11:27:33.128Z,40.20
2018-08-30T11:30:01.596Z,39.00
2018-08-30T11:32:30.042Z,37.70
2018-08-30T11:34:58.498Z,35.30
2018-08-30T11:37:26.979Z,36.20
2018-08-30T11:39:55.599Z,35.90
2018-08-30T11:42:24.066Z,35.40
2018-08-30T11:44:52.508Z,37.10
2018-08-30T11:47:20.991Z,38.60
2018-08-30T11:49:49.537Z,38.80
2018-08-30T11:52:18.080Z,41.80
2018-08-30T11:54:46.443Z,44.80
2018-08-30T11:57:14.927Z,47.10
2018-08-30T11:59:43.379Z,47.90
2018-08-30T12:02:12.325Z,47.90
2018-08-30T12:04:40.887Z,45.20
2018-08-30T12:07:09.463Z,44.40
2018-08-30T12:09:37.961Z,42.30
2018-08-30T12:12:06.817Z,36.80
2018-08-30T12:14:35.351Z,33.80
2018-08-30T12:17:03.927Z,32.10
2018-08-30T12:19:32.403Z,31.30
2018-08-30T12:22:00.825Z,30.80
2018-08-30T12:24:29.281Z,31.70
2018-08-30T12:26:57.803Z,33.70
2018-08-30T12:29:26.293Z,38.10
2018-08-30T12:31:54.811Z,41.20
2018-08-30T12:34:23.365Z,43.50
2018-08-30T12:36:51.823Z,45.30
2018-08-30T12:39:20.327Z,47.60
2018-08-30T12:41:48.951Z,48.50
2018-08-30T12:44:17.393Z,49.10
2018-08-30T12:46:45.922Z,49.60
2018-08-30T12:51:49.198Z,51.80
2018-08-30T12:54:17.945Z,49.20
2018-08-30T12:56:46.436Z,49.40
2018-08-30T12:59:17.634Z,50.00
2018-08-30T13:01:46.718Z,49.20
2018-08-30T13:04:15.280Z,46.30
2018-08-30T13:06:44.809Z,44.90
2018-08-30T13:09:14.783Z,44.30
2018-08-30T13:11:43.274Z,38.40
2018-08-30T13:14:11.631Z,37.20
2018-08-30T13:16:40.537Z,38.80
2018-08-30T13:19:09.055Z,41.30
2018-08-30T13:21:37.534Z,41.70
2018-08-30T13:24:06.026Z,41.90
2018-08-30T13:26:34.489Z,39.20
2018-08-30T13:29:03.228Z,38.50
2018-08-30T13:31:31.704Z,40.70
2018-08-30T13:34:00.502Z,42.20
2018-08-30T13:36:28.852Z,43.50
2018-08-30T13:38:57.559Z,45.10
2018-08-30T13:41:26.109Z,47.20
2018-08-30T13:43:54.646Z,46.60
2018-08-30T13:46:23.216Z,47.10
2018-08-30T13:48:51.683Z,47.20
2018-08-30T13:51:26.407Z,48.20
2018-08-30T13:53:55.007Z,49.00
2018-08-30T13:56:23.618Z,50.80
2018-08-30T13:58:52.168Z,51.40
2018-08-30T14:01:20.843Z,52.00
2018-08-30T14:03:48.988Z,52.30
2018-08-30T14:06:17.384Z,53.70
2018-08-30T14:08:46.013Z,56.10
2018-08-30T14:11:14.622Z,56.30
2018-08-30T14:13:42.889Z,57.40
2018-08-30T14:16:11.817Z,57.10
2018-08-30T14:18:40.331Z,57.60
2018-08-30T14:21:08.839Z,57.00
2018-08-30T14:23:37.423Z,56.20
2018-08-30T14:26:05.822Z,56.60
2018-08-30T14:28:34.314Z,57.40
2018-08-30T14:31:02.774Z,58.40
2018-08-30T14:33:31.291Z,58.50
2018-08-30T14:35:59.740Z,59.30
2018-08-30T14:38:28.244Z,58.80
2018-08-30T14:40:56.750Z,58.60
2018-08-30T14:43:25.174Z,58.10
2018-08-30T14:45:53.662Z,57.80
2018-08-30T14:48:22.148Z,57.90
2018-08-30T14:50:50.626Z,57.30
2018-08-30T14:53:19.101Z,57.20
2018-08-30T14:55:47.586Z,57.50
2018-08-30T14:58:16.078Z,58.40
2018-08-30T15:00:45.802Z,57.00
2018-08-30T15:03:14.236Z,57.90
2018-08-30T15:05:42.861Z,57.70
2018-08-30T15:08:11.154Z,56.40
2018-08-30T15:10:39.602Z,57.50
2018-08-30T15:13:08.080Z,57.70
2018-08-30T15:15:36.586Z,58.50
2018-08-30T15:18:05.146Z,59.10
2018-08-30T15:20:34.223Z,57.80
2018-08-30T15:23:03.749Z,58.00
2018-08-30T15:25:32.322Z,56.80
2018-08-30T15:28:00.829Z,56.40
2018-08-30T15:30:29.268Z,56.50
2018-08-30T15:32:57.784Z,56.50
2018-08-30T15:35:26.358Z,55.50
2018-08-30T15:37:55.270Z,55.60
2018-08-30T15:40:24.700Z,55.60
2018-08-30T15:42:56.482Z,56.30
2018-08-30T15:45:31.075Z,56.70
2018-08-30T15:47:59.630Z,55.80
2018-08-30T15:50:28.057Z,55.50
2018-08-30T15:52:56.507Z,56.20
2018-08-30T15:55:25.019Z,56.30
2018-08-30T15:57:53.515Z,57.40
2018-08-30T16:00:21.998Z,57.80
2018-08-30T16:02:50.486Z,56.60
2018-08-30T16:05:19.063Z,56.90
2018-08-30T16:07:47.678Z,57.10
2018-08-30T16:10:16.170Z,58.50
2018-08-30T16:12:44.738Z,57.60
2018-08-30T16:15:13.542Z,58.70
2018-08-30T16:17:42.019Z,58.70
2018-08-30T16:20:10.543Z,59.40
2018-08-30T16:23:44.296Z,59.00
2018-08-30T16:26:12.747Z,59.80
2018-08-30T16:28:41.200Z,60.00
2018-08-30T16:31:09.744Z,60.70
2018-08-30T16:33:38.197Z,61.50
2018-08-30T16:36:06.410Z,61.30
2018-08-30T16:38:34.908Z,61.10
2018-08-30T16:41:03.568Z,60.10
2018-08-30T16:43:31.823Z,61.00
2018-08-30T16:46:00.290Z,61.60
2018-08-30T16:48:28.825Z,60.60
2018-08-30T16:50:57.286Z,61.90
2018-08-30T16:53:25.892Z,60.90
2018-08-30T16:55:54.298Z,61.30
2018-08-30T16:58:22.741Z,61.60
2018-08-30T17:00:51.327Z,62.00
2018-08-30T17:03:19.730Z,61.50
2018-08-30T17:05:48.207Z,62.30
2018-08-30T17:08:16.678Z,62.30
2018-08-30T17:10:45.124Z,62.80
2018-08-30T17:13:13.654Z,63.70
2018-08-30T17:15:42.170Z,63.80
2018-08-30T17:18:10.647Z,64.30
2018-08-30T17:20:45.751Z,63.10
2018-08-30T17:23:14.233Z,64.20
2018-08-30T17:25:43.348Z,64.60
2018-08-30T17:28:12.385Z,64.50
2018-08-30T17:30:41.249Z,64.80
2018-08-30T17:33:10.049Z,64.40
2018-08-30T17:35:38.571Z,64.80
2018-08-30T17:38:07.165Z,64.00
2018-08-30T17:40:35.714Z,64.00
2018-08-30T17:43:04.277Z,64.40
2018-08-30T17:45:32.885Z,64.40
2018-08-30T17:48:01.374Z,65.10
2018-08-30T17:50:29.863Z,64.80
2018-08-30T17:52:58.387Z,65.40
2018-08-30T17:55:26.953Z,66.20
2018-08-30T17:57:55.779Z,67.00
2018-08-30T18:00:24.434Z,68.20
2018-08-30T18:02:53.441Z,68.00
2018-08-30T18:05:22.087Z,68.00
2018-08-30T18:07:50.759Z,69.20
2018-08-30T18:10:19.306Z,69.00
2018-08-30T18:12:47.804Z,69.80
2018-08-30T18:15:16.804Z,70.20
2018-08-30T18:17:46.230Z,69.80
2018-08-30T18:20:14.776Z,71.30
2018-08-30T18:22:43.310Z,70.60
2018-08-30T18:25:11.831Z,71.20
2018-08-30T18:27:40.281Z,71.50
2018-08-30T18:30:09.851Z,71.60
2018-08-30T18:32:38.471Z,73.00
2018-08-30T18:35:08.677Z,73.20
2018-08-30T18:37:37.607Z,72.90
2018-08-30T18:40:06.944Z,73.60
2018-08-30T18:42:35.468Z,73.70
2018-08-30T18:45:03.965Z,73.30
2018-08-30T18:47:37.414Z,73.10
2018-08-30T18:50:06.980Z,73.20
2018-08-30T18:52:35.997Z,74.00
2018-08-30T18:55:04.927Z,74.30
2018-08-30T18:57:33.383Z,74.80
2018-08-30T19:00:01.848Z,74.80
2018-08-30T19:02:30.318Z,74.90
2018-08-30T19:04:58.788Z,75.50
2018-08-30T19:07:27.230Z,76.20
2018-08-30T19:09:55.719Z,76.40
2018-08-30T19:12:24.248Z,76.00
2018-08-30T19:14:52.761Z,76.60
2018-08-30T19:17:26.459Z,76.80
2018-08-30T19:19:54.947Z,77.50
2018-08-30T19:22:23.425Z,77.60
2018-08-30T19:25:54.888Z,77.70
2018-08-30T19:28:23.459Z,77.50
2018-08-30T19:30:51.949Z,78.70
2018-08-30T19:33:20.432Z,78.60
2018-08-30T19:35:54.328Z,78.40
2018-08-30T19:38:22.835Z,78.70
2018-08-30T19:40:56.585Z,78.60
2018-08-30T19:43:25.061Z,78.90
2018-08-30T19:45:53.539Z,79.00
2018-08-30T19:48:22.041Z,79.00
2018-08-30T19:50:50.493Z,79.10
2018-08-30T19:53:18.946Z,79.20
2018-08-30T19:55:47.397Z,79.10
2018-08-30T19:58:15.887Z,79.20
2018-08-30T20:00:44.283Z,79.80
2018-08-30T20:03:12.751Z,79.30
2018-08-30T20:05:41.205Z,79.40
2018-08-30T20:08:09.661Z,79.60
2018-08-30T20:10:38.134Z,79.70
2018-08-30T20:13:06.674Z,79.70
2018-08-30T20:15:35.141Z,80.30
2018-08-30T20:18:03.579Z,80.40
2018-08-30T20:20:31.994Z,80.70
2018-08-30T20:23:00.487Z,80.50
2018-08-30T20:25:28.955Z,80.70
2018-08-30T20:27:57.467Z,81.50
2018-08-30T20:30:25.922Z,81.40
2018-08-30T20:32:54.384Z,81.40
2018-08-30T20:35:22.883Z,81.70
2018-08-30T20:37:51.372Z,81.70
2018-08-30T20:40:19.831Z,81.70
2018-08-30T20:42:48.297Z,81.70
2018-08-30T20:45:16.801Z,81.70
2018-08-30T20:47:45.259Z,81.50
2018-08-30T20:50:13.782Z,81.90
2018-08-30T20:52:42.269Z,81.60
2018-08-30T20:55:10.771Z,81.70
2018-08-30T20:57:39.265Z,81.60
2018-08-30T21:00:07.929Z,81.80
2018-08-30T21:02:36.969Z,81.60
2018-08-30T21:05:05.559Z,81.50
2018-08-30T21:07:34.023Z,81.20
2018-08-30T21:10:02.559Z,82.30
2018-08-30T21:12:31.020Z,82.00
2018-08-30T21:14:59.817Z,81.70
2018-08-30T21:17:28.415Z,81.40
2018-08-30T21:19:56.849Z,81.80
2018-08-30T21:22:25.325Z,82.00
2018-08-30T21:24:53.785Z,81.50
2018-08-30T21:27:22.255Z,82.10
2018-08-30T21:29:50.691Z,81.70
2018-08-30T21:32:19.155Z,82.80
2018-08-30T21:34:47.583Z,83.40
2018-08-30T21:37:16.027Z,82.40
2018-08-30T21:39:44.477Z,82.60
2018-08-30T21:42:12.929Z,82.90
2018-08-30T21:44:41.339Z,83.00
2018-08-30T21:47:09.795Z,83.30
2018-08-30T21:49:38.263Z,83.20
2018-08-30T21:52:06.972Z,83.00
2018-08-30T21:54:35.430Z,83.00
2018-08-30T21:57:03.886Z,83.60
2018-08-30T21:59:32.420Z,83.40
2018-08-30T22:02:01.012Z,83.90
2018-08-30T22:04:29.472Z,83.80
2018-08-30T22:06:57.921Z,84.00
2018-08-30T22:09:26.430Z,83.60
2018-08-30T22:11:54.862Z,83.90
2018-08-30T22:14:23.593Z,83.80
2018-08-30T22:16:52.084Z,84.80
2018-08-30T22:19:20.544Z,84.40
2018-08-30T22:21:48.965Z,84.30
2018-08-30T22:24:17.405Z,84.40
2018-08-30T22:26:45.862Z,84.70
2018-08-30T22:29:14.311Z,84.40
2018-08-30T22:31:42.748Z,84.90
2018-08-30T22:34:11.197Z,84.50
2018-08-30T22:36:39.647Z,84.70
2018-08-30T22:39:08.653Z,84.90
2018-08-30T22:41:37.205Z,84.50
2018-08-30T22:44:05.659Z,85.00
2018-08-30T22:46:34.105Z,85.20
2018-08-30T22:49:02.563Z,85.60
2018-08-30T22:51:31.071Z,85.20
2018-08-30T22:53:59.519Z,84.60
2018-08-30T22:56:28.241Z,84.60
2018-08-30T22:58:56.727Z,84.60
2018-08-30T23:01:25.175Z,85.10
2018-08-30T23:03:53.720Z,85.20
2018-08-30T23:06:22.164Z,85.40
2018-08-30T23:08:50.623Z,85.50
2018-08-30T23:11:19.308Z,85.50
2018-08-30T23:13:47.768Z,85.20
2018-08-30T23:16:16.244Z,85.20
2018-08-30T23:18:44.682Z,85.50
2018-08-30T23:21:13.128Z,85.50
2018-08-30T23:23:41.608Z,85.10
2018-08-30T23:26:10.052Z,84.80
2018-08-30T23:28:38.488Z,85.40
2018-08-30T23:31:06.973Z,85.50
2018-08-30T23:33:35.418Z,85.50
2018-08-30T23:36:03.890Z,85.50
2018-08-30T23:38:32.320Z,85.60
2018-08-30T23:41:00.775Z,85.50
2018-08-30T23:43:29.204Z,85.00
2018-08-30T23:45:57.928Z,85.00
2018-08-30T23:48:26.431Z,85.40
2018-08-30T23:50:54.956Z,85.40
2018-08-30T23:53:23.681Z,85.30
2018-08-30T23:55:52.172Z,85.40
2018-08-30T23:58:31.959Z,86.00
